KLSF/LSF METAR and TAF weather

Enter ICAO airport designator
Station Type Date Time Source
KLSF METAR 2021/09/24 06:56 UTC NOAA

KLSF 240656Z AUTO 00000KT 1 3/4SM BR CLR 11/10 A3004 RMK AO2 VIS 7/8V4 SLP177 T01080097 $


Station Type Date Time Source
KLSF Decoded METAR 2021/09/24 06:56 UTC NOAA

Fort Benning, GA, United States (KLSF) 32-20N 084-50W 130M
Sep 24, 2021 - 02:56 AM EDT / 2021.09.24 0656 UTC
Wind: Calm:0
Visibility: 1 3/4 mile(s):0
Sky conditions: clear
Weather: mist
Temperature: 51.4 F (10.8 C)
Dew Point: 49.5 F (9.7 C)
Relative Humidity: 92%
Pressure (altimeter): 30.04 in. Hg (1017 hPa)
ob: KLSF 240656Z AUTO 00000KT 1 3/4SM BR CLR 11/10 A3004 RMK AO2 VIS 7/8V4 SLP177 T01080097
cycle: 7

Station Type Date Time Source
KLSF TAF 2021/09/23 21:16 UTC NOAA

TAF KLSF 232100Z 2321/2503 02009KT 9999 SKC QNH2994INS TX26/2419Z TN10/2409Z LAST NO
AMDS AFT 2403 NEXT 2413

Example: see airport list